sensor_id;sensor_type;location;lat;lon;timestamp;P1;durP1;ratioP1;P2;durP2;ratioP2
48987;SDS011;34799;51.440;-2.534;2023-08-08T00:00:08;1.70;;;0.40;;
48987;SDS011;34799;51.440;-2.534;2023-08-08T00:02:38;3.08;;;0.45;;
48987;SDS011;34799;51.440;-2.534;2023-08-08T00:05:06;3.30;;;0.50;;
48987;SDS011;34799;51.440;-2.534;2023-08-08T00:07:33;1.98;;;0.40;;
48987;SDS011;34799;51.440;-2.534;2023-08-08T00:10:00;2.95;;;0.40;;
48987;SDS011;34799;51.440;-2.534;2023-08-08T00:12:27;1.90;;;0.32;;
48987;SDS011;34799;51.440;-2.534;2023-08-08T00:14:54;4.68;;;0.40;;
48987;SDS011;34799;51.440;-2.534;2023-08-08T00:17:21;2.05;;;0.50;;
48987;SDS011;34799;51.440;-2.534;2023-08-08T00:19:48;2.17;;;0.40;;
48987;SDS011;34799;51.440;-2.534;2023-08-08T00:22:15;1.92;;;0.35;;
48987;SDS011;34799;51.440;-2.534;2023-08-08T00:24:43;1.92;;;0.50;;
48987;SDS011;34799;51.440;-2.534;2023-08-08T00:27:10;5.38;;;0.40;;
48987;SDS011;34799;51.440;-2.534;2023-08-08T00:29:38;2.58;;;0.50;;
48987;SDS011;34799;51.440;-2.534;2023-08-08T00:32:05;4.43;;;0.60;;
48987;SDS011;34799;51.440;-2.534;2023-08-08T00:34:33;1.75;;;0.30;;
48987;SDS011;34799;51.440;-2.534;2023-08-08T00:37:00;1.38;;;0.38;;
48987;SDS011;34799;51.440;-2.534;2023-08-08T00:39:28;2.10;;;0.43;;
48987;SDS011;34799;51.440;-2.534;2023-08-08T00:41:56;3.28;;;0.52;;
48987;SDS011;34799;51.440;-2.534;2023-08-08T00:44:23;4.53;;;0.50;;
48987;SDS011;34799;51.440;-2.534;2023-08-08T00:46:50;3.97;;;0.68;;
48987;SDS011;34799;51.440;-2.534;2023-08-08T00:49:18;1.67;;;0.38;;
48987;SDS011;34799;51.440;-2.534;2023-08-08T00:51:46;3.20;;;0.40;;
48987;SDS011;34799;51.440;-2.534;2023-08-08T00:54:14;2.85;;;0.60;;
48987;SDS011;34799;51.440;-2.534;2023-08-08T00:56:41;4.05;;;0.52;;
48987;SDS011;34799;51.440;-2.534;2023-08-08T00:59:08;2.58;;;0.60;;
48987;SDS011;34799;51.440;-2.534;2023-08-08T01:01:40;2.80;;;0.57;;
48987;SDS011;34799;51.440;-2.534;2023-08-08T01:04:07;3.03;;;0.50;;
48987;SDS011;34799;51.440;-2.534;2023-08-08T01:06:38;5.05;;;0.85;;
48987;SDS011;34799;51.440;-2.534;2023-08-08T01:11:51;3.97;;;0.50;;
48987;SDS011;34799;51.440;-2.534;2023-08-08T01:14:20;5.85;;;0.73;;
48987;SDS011;34799;51.440;-2.534;2023-08-08T01:16:51;3.10;;;0.40;;
48987;SDS011;34799;51.440;-2.534;2023-08-08T01:19:27;2.10;;;0.50;;
48987;SDS011;34799;51.440;-2.534;2023-08-08T01:21:57;3.80;;;0.40;;
48987;SDS011;34799;51.440;-2.534;2023-08-08T01:24:30;1.63;;;0.75;;
48987;SDS011;34799;51.440;-2.534;2023-08-08T01:26:59;3.97;;;0.45;;
48987;SDS011;34799;51.440;-2.534;2023-08-08T01:29:27;4.53;;;0.52;;
48987;SDS011;34799;51.440;-2.534;2023-08-08T01:31:54;4.13;;;0.57;;
48987;SDS011;34799;51.440;-2.534;2023-08-08T01:34:22;4.15;;;0.40;;
48987;SDS011;34799;51.440;-2.534;2023-08-08T01:36:50;2.42;;;0.52;;
48987;SDS011;34799;51.440;-2.534;2023-08-08T01:39:25;2.95;;;0.68;;
48987;SDS011;34799;51.440;-2.534;2023-08-08T01:41:54;2.67;;;0.40;;
48987;SDS011;34799;51.440;-2.534;2023-08-08T01:44:22;2.08;;;0.30;;
48987;SDS011;34799;51.440;-2.534;2023-08-08T01:46:53;1.13;;;0.45;;
48987;SDS011;34799;51.440;-2.534;2023-08-08T01:49:21;2.33;;;0.85;;
48987;SDS011;34799;51.440;-2.534;2023-08-08T01:51:49;1.55;;;0.45;;
48987;SDS011;34799;51.440;-2.534;2023-08-08T01:54:17;1.63;;;0.30;;
48987;SDS011;34799;51.440;-2.534;2023-08-08T01:56:45;1.05;;;0.40;;
48987;SDS011;34799;51.440;-2.534;2023-08-08T01:59:12;3.10;;;0.45;;
48987;SDS011;34799;51.440;-2.534;2023-08-08T02:01:41;3.38;;;0.47;;
48987;SDS011;34799;51.440;-2.534;2023-08-08T02:04:08;2.05;;;0.20;;
48987;SDS011;34799;51.440;-2.534;2023-08-08T02:06:36;3.55;;;0.52;;
48987;SDS011;34799;51.440;-2.534;2023-08-08T02:09:03;1.08;;;0.40;;
48987;SDS011;34799;51.440;-2.534;2023-08-08T02:11:30;1.98;;;0.40;;
48987;SDS011;34799;51.440;-2.534;2023-08-08T02:13:57;1.50;;;0.20;;
48987;SDS011;34799;51.440;-2.534;2023-08-08T02:16:24;3.97;;;0.82;;
48987;SDS011;34799;51.440;-2.534;2023-08-08T02:18:52;0.68;;;0.17;;
48987;SDS011;34799;51.440;-2.534;2023-08-08T02:21:19;1.85;;;0.20;;
48987;SDS011;34799;51.440;-2.534;2023-08-08T02:23:48;1.02;;;0.13;;
48987;SDS011;34799;51.440;-2.534;2023-08-08T02:26:15;1.23;;;0.65;;
48987;SDS011;34799;51.440;-2.534;2023-08-08T02:28:42;0.90;;;0.20;;
48987;SDS011;34799;51.440;-2.534;2023-08-08T02:31:09;1.38;;;0.52;;
48987;SDS011;34799;51.440;-2.534;2023-08-08T02:33:36;4.68;;;0.20;;
48987;SDS011;34799;51.440;-2.534;2023-08-08T02:36:03;0.90;;;0.10;;
48987;SDS011;34799;51.440;-2.534;2023-08-08T02:38:31;1.88;;;0.20;;
48987;SDS011;34799;51.440;-2.534;2023-08-08T02:40:58;3.72;;;0.20;;
48987;SDS011;34799;51.440;-2.534;2023-08-08T02:43:26;1.98;;;0.52;;
48987;SDS011;34799;51.440;-2.534;2023-08-08T02:45:53;3.28;;;0.40;;
48987;SDS011;34799;51.440;-2.534;2023-08-08T02:48:21;0.88;;;0.10;;
48987;SDS011;34799;51.440;-2.534;2023-08-08T02:50:48;2.03;;;0.20;;
48987;SDS011;34799;51.440;-2.534;2023-08-08T02:53:18;2.33;;;0.28;;
48987;SDS011;34799;51.440;-2.534;2023-08-08T02:55:47;1.33;;;0.20;;
48987;SDS011;34799;51.440;-2.534;2023-08-08T02:58:14;2.63;;;0.45;;
48987;SDS011;34799;51.440;-2.534;2023-08-08T03:00:43;1.83;;;0.28;;
48987;SDS011;34799;51.440;-2.534;2023-08-08T03:03:13;1.45;;;0.20;;
48987;SDS011;34799;51.440;-2.534;2023-08-08T03:05:44;0.70;;;0.20;;
48987;SDS011;34799;51.440;-2.534;2023-08-08T03:08:14;2.05;;;0.30;;
48987;SDS011;34799;51.440;-2.534;2023-08-08T03:10:42;1.38;;;0.30;;
48987;SDS011;34799;51.440;-2.534;2023-08-08T03:13:10;3.88;;;0.30;;
48987;SDS011;34799;51.440;-2.534;2023-08-08T03:15:38;2.22;;;0.30;;
48987;SDS011;34799;51.440;-2.534;2023-08-08T03:18:06;1.73;;;0.40;;
48987;SDS011;34799;51.440;-2.534;2023-08-08T03:20:35;1.45;;;0.30;;
48987;SDS011;34799;51.440;-2.534;2023-08-08T03:23:04;5.10;;;0.40;;
48987;SDS011;34799;51.440;-2.534;2023-08-08T03:25:31;2.63;;;0.30;;
48987;SDS011;34799;51.440;-2.534;2023-08-08T03:27:59;2.38;;;0.35;;
48987;SDS011;34799;51.440;-2.534;2023-08-08T03:30:27;0.43;;;0.20;;
48987;SDS011;34799;51.440;-2.534;2023-08-08T03:32:54;0.88;;;0.20;;
48987;SDS011;34799;51.440;-2.534;2023-08-08T03:35:21;1.33;;;0.30;;
48987;SDS011;34799;51.440;-2.534;2023-08-08T03:37:49;2.70;;;0.88;;
48987;SDS011;34799;51.440;-2.534;2023-08-08T03:40:16;1.23;;;0.50;;
48987;SDS011;34799;51.440;-2.534;2023-08-08T03:42:43;0.82;;;0.30;;
48987;SDS011;34799;51.440;-2.534;2023-08-08T03:45:11;1.30;;;0.30;;
48987;SDS011;34799;51.440;-2.534;2023-08-08T03:47:38;1.05;;;0.30;;
48987;SDS011;34799;51.440;-2.534;2023-08-08T03:50:06;1.40;;;0.30;;
48987;SDS011;34799;51.440;-2.534;2023-08-08T03:52:35;1.02;;;0.43;;
48987;SDS011;34799;51.440;-2.534;2023-08-08T03:55:08;0.63;;;0.20;;
48987;SDS011;34799;51.440;-2.534;2023-08-08T03:57:37;2.40;;;0.30;;
48987;SDS011;34799;51.440;-2.534;2023-08-08T04:00:05;3.33;;;0.50;;
48987;SDS011;34799;51.440;-2.534;2023-08-08T04:02:40;1.80;;;0.40;;
48987;SDS011;34799;51.440;-2.534;2023-08-08T04:05:09;2.30;;;0.40;;
48987;SDS011;34799;51.440;-2.534;2023-08-08T04:07:36;2.78;;;0.47;;
48987;SDS011;34799;51.440;-2.534;2023-08-08T04:10:04;1.90;;;0.30;;
48987;SDS011;34799;51.440;-2.534;2023-08-08T04:12:32;2.53;;;0.70;;
48987;SDS011;34799;51.440;-2.534;2023-08-08T04:15:00;2.70;;;0.30;;
48987;SDS011;34799;51.440;-2.534;2023-08-08T04:17:27;3.33;;;0.40;;
48987;SDS011;34799;51.440;-2.534;2023-08-08T04:19:54;2.83;;;0.88;;
48987;SDS011;34799;51.440;-2.534;2023-08-08T04:22:22;3.22;;;0.50;;
48987;SDS011;34799;51.440;-2.534;2023-08-08T04:24:49;0.75;;;0.30;;
48987;SDS011;34799;51.440;-2.534;2023-08-08T04:27:16;3.70;;;0.45;;
48987;SDS011;34799;51.440;-2.534;2023-08-08T04:29:43;1.23;;;0.40;;
48987;SDS011;34799;51.440;-2.534;2023-08-08T04:32:11;0.98;;;0.40;;
48987;SDS011;34799;51.440;-2.534;2023-08-08T04:34:38;2.55;;;0.50;;
48987;SDS011;34799;51.440;-2.534;2023-08-08T04:37:06;5.95;;;1.13;;
48987;SDS011;34799;51.440;-2.534;2023-08-08T04:39:33;2.65;;;0.60;;
48987;SDS011;34799;51.440;-2.534;2023-08-08T04:42:01;1.27;;;0.73;;
48987;SDS011;34799;51.440;-2.534;2023-08-08T04:44:28;2.33;;;0.60;;
48987;SDS011;34799;51.440;-2.534;2023-08-08T04:46:55;2.92;;;1.30;;
48987;SDS011;34799;51.440;-2.534;2023-08-08T04:49:23;6.00;;;2.40;;
48987;SDS011;34799;51.440;-2.534;2023-08-08T04:51:50;6.93;;;1.95;;
48987;SDS011;34799;51.440;-2.534;2023-08-08T04:54:18;5.82;;;2.05;;
48987;SDS011;34799;51.440;-2.534;2023-08-08T04:56:45;2.70;;;0.70;;
48987;SDS011;34799;51.440;-2.534;2023-08-08T04:59:13;1.38;;;0.80;;
48987;SDS011;34799;51.440;-2.534;2023-08-08T05:01:40;1.25;;;0.70;;
48987;SDS011;34799;51.440;-2.534;2023-08-08T05:04:08;1.77;;;0.60;;
48987;SDS011;34799;51.440;-2.534;2023-08-08T05:06:35;2.42;;;0.65;;
48987;SDS011;34799;51.440;-2.534;2023-08-08T05:09:02;2.05;;;0.70;;
48987;SDS011;34799;51.440;-2.534;2023-08-08T05:11:30;1.17;;;0.52;;
48987;SDS011;34799;51.440;-2.534;2023-08-08T05:13:57;1.50;;;0.43;;
48987;SDS011;34799;51.440;-2.534;2023-08-08T05:16:25;2.28;;;0.98;;
48987;SDS011;34799;51.440;-2.534;2023-08-08T05:18:52;2.72;;;0.52;;
48987;SDS011;34799;51.440;-2.534;2023-08-08T05:21:21;4.22;;;0.50;;
48987;SDS011;34799;51.440;-2.534;2023-08-08T05:23:48;4.43;;;0.90;;
48987;SDS011;34799;51.440;-2.534;2023-08-08T05:26:15;3.00;;;0.57;;
48987;SDS011;34799;51.440;-2.534;2023-08-08T05:28:42;3.97;;;1.00;;
48987;SDS011;34799;51.440;-2.534;2023-08-08T05:31:09;2.90;;;1.15;;
48987;SDS011;34799;51.440;-2.534;2023-08-08T05:33:37;4.00;;;1.10;;
48987;SDS011;34799;51.440;-2.534;2023-08-08T05:36:04;6.47;;;1.55;;
48987;SDS011;34799;51.440;-2.534;2023-08-08T05:38:32;5.35;;;1.65;;
48987;SDS011;34799;51.440;-2.534;2023-08-08T05:40:59;6.40;;;1.85;;
48987;SDS011;34799;51.440;-2.534;2023-08-08T05:43:27;3.80;;;1.30;;
48987;SDS011;34799;51.440;-2.534;2023-08-08T05:45:55;9.82;;;1.50;;
48987;SDS011;34799;51.440;-2.534;2023-08-08T05:48:22;3.15;;;1.20;;
48987;SDS011;34799;51.440;-2.534;2023-08-08T05:50:49;5.10;;;1.23;;
48987;SDS011;34799;51.440;-2.534;2023-08-08T05:53:17;3.05;;;1.27;;
48987;SDS011;34799;51.440;-2.534;2023-08-08T05:55:44;2.35;;;0.98;;
48987;SDS011;34799;51.440;-2.534;2023-08-08T05:58:12;5.07;;;0.90;;
48987;SDS011;34799;51.440;-2.534;2023-08-08T06:00:40;4.72;;;1.00;;
48987;SDS011;34799;51.440;-2.534;2023-08-08T06:03:07;6.20;;;1.58;;
48987;SDS011;34799;51.440;-2.534;2023-08-08T06:05:35;3.17;;;0.93;;
48987;SDS011;34799;51.440;-2.534;2023-08-08T06:08:02;3.38;;;1.80;;
48987;SDS011;34799;51.440;-2.534;2023-08-08T06:10:33;6.78;;;1.83;;
48987;SDS011;34799;51.440;-2.534;2023-08-08T06:13:01;5.65;;;1.63;;
48987;SDS011;34799;51.440;-2.534;2023-08-08T06:15:28;4.55;;;1.20;;
48987;SDS011;34799;51.440;-2.534;2023-08-08T06:17:55;4.00;;;1.60;;
48987;SDS011;34799;51.440;-2.534;2023-08-08T06:20:22;7.47;;;1.75;;
48987;SDS011;34799;51.440;-2.534;2023-08-08T06:22:49;3.30;;;1.20;;
48987;SDS011;34799;51.440;-2.534;2023-08-08T06:25:16;5.85;;;1.85;;
48987;SDS011;34799;51.440;-2.534;2023-08-08T06:27:43;7.20;;;2.08;;
48987;SDS011;34799;51.440;-2.534;2023-08-08T06:30:10;6.10;;;1.33;;
48987;SDS011;34799;51.440;-2.534;2023-08-08T06:32:37;2.17;;;0.85;;
48987;SDS011;34799;51.440;-2.534;2023-08-08T06:35:04;2.50;;;1.00;;
48987;SDS011;34799;51.440;-2.534;2023-08-08T06:37:32;2.38;;;0.95;;
48987;SDS011;34799;51.440;-2.534;2023-08-08T06:39:59;2.78;;;0.80;;
48987;SDS011;34799;51.440;-2.534;2023-08-08T06:42:27;3.95;;;0.82;;
48987;SDS011;34799;51.440;-2.534;2023-08-08T06:44:59;6.88;;;0.70;;
48987;SDS011;34799;51.440;-2.534;2023-08-08T06:47:26;4.03;;;0.60;;
48987;SDS011;34799;51.440;-2.534;2023-08-08T06:49:53;1.38;;;0.82;;
48987;SDS011;34799;51.440;-2.534;2023-08-08T06:52:21;4.03;;;0.60;;
48987;SDS011;34799;51.440;-2.534;2023-08-08T06:54:48;2.30;;;0.50;;
48987;SDS011;34799;51.440;-2.534;2023-08-08T06:57:15;7.10;;;0.80;;
48987;SDS011;34799;51.440;-2.534;2023-08-08T06:59:42;1.95;;;0.60;;
48987;SDS011;34799;51.440;-2.534;2023-08-08T07:02:10;3.30;;;1.05;;
48987;SDS011;34799;51.440;-2.534;2023-08-08T07:04:37;3.28;;;0.50;;
48987;SDS011;34799;51.440;-2.534;2023-08-08T07:07:05;1.42;;;0.40;;
48987;SDS011;34799;51.440;-2.534;2023-08-08T07:09:32;2.58;;;0.60;;
48987;SDS011;34799;51.440;-2.534;2023-08-08T07:11:59;1.38;;;0.45;;
48987;SDS011;34799;51.440;-2.534;2023-08-08T07:14:26;2.30;;;0.47;;
48987;SDS011;34799;51.440;-2.534;2023-08-08T07:16:53;2.25;;;0.70;;
48987;SDS011;34799;51.440;-2.534;2023-08-08T07:19:20;1.92;;;0.60;;
48987;SDS011;34799;51.440;-2.534;2023-08-08T07:21:47;3.92;;;0.88;;
48987;SDS011;34799;51.440;-2.534;2023-08-08T07:24:14;2.33;;;1.02;;
48987;SDS011;34799;51.440;-2.534;2023-08-08T07:26:42;1.02;;;0.60;;
48987;SDS011;34799;51.440;-2.534;2023-08-08T07:29:09;3.03;;;0.90;;
48987;SDS011;34799;51.440;-2.534;2023-08-08T07:31:36;5.57;;;0.70;;
48987;SDS011;34799;51.440;-2.534;2023-08-08T07:34:03;4.00;;;0.70;;
48987;SDS011;34799;51.440;-2.534;2023-08-08T07:36:30;1.42;;;0.57;;
48987;SDS011;34799;51.440;-2.534;2023-08-08T07:38:58;3.72;;;0.43;;
48987;SDS011;34799;51.440;-2.534;2023-08-08T07:41:26;2.25;;;0.73;;
48987;SDS011;34799;51.440;-2.534;2023-08-08T07:43:56;1.92;;;0.50;;
48987;SDS011;34799;51.440;-2.534;2023-08-08T07:46:23;1.02;;;0.50;;
48987;SDS011;34799;51.440;-2.534;2023-08-08T07:48:50;3.47;;;0.60;;
48987;SDS011;34799;51.440;-2.534;2023-08-08T07:51:17;1.65;;;0.65;;
48987;SDS011;34799;51.440;-2.534;2023-08-08T07:53:44;0.82;;;0.55;;
48987;SDS011;34799;51.440;-2.534;2023-08-08T07:56:12;1.35;;;0.50;;
48987;SDS011;34799;51.440;-2.534;2023-08-08T07:58:39;3.10;;;0.40;;
48987;SDS011;34799;51.440;-2.534;2023-08-08T08:01:06;2.65;;;0.60;;
48987;SDS011;34799;51.440;-2.534;2023-08-08T08:03:34;3.00;;;0.60;;
48987;SDS011;34799;51.440;-2.534;2023-08-08T08:06:01;3.47;;;0.60;;
48987;SDS011;34799;51.440;-2.534;2023-08-08T08:08:28;1.90;;;0.57;;
48987;SDS011;34799;51.440;-2.534;2023-08-08T08:10:55;3.28;;;0.60;;
48987;SDS011;34799;51.440;-2.534;2023-08-08T08:13:23;1.45;;;0.55;;
48987;SDS011;34799;51.440;-2.534;2023-08-08T08:15:50;3.53;;;0.75;;
48987;SDS011;34799;51.440;-2.534;2023-08-08T08:18:17;1.95;;;0.60;;
48987;SDS011;34799;51.440;-2.534;2023-08-08T08:20:46;1.30;;;0.50;;
48987;SDS011;34799;51.440;-2.534;2023-08-08T08:23:13;2.08;;;0.75;;
48987;SDS011;34799;51.440;-2.534;2023-08-08T08:25:40;1.90;;;0.50;;
48987;SDS011;34799;51.440;-2.534;2023-08-08T08:28:08;2.33;;;0.43;;
48987;SDS011;34799;51.440;-2.534;2023-08-08T08:30:35;2.83;;;0.60;;
48987;SDS011;34799;51.440;-2.534;2023-08-08T08:33:03;1.40;;;0.47;;
48987;SDS011;34799;51.440;-2.534;2023-08-08T08:35:34;1.60;;;0.50;;
48987;SDS011;34799;51.440;-2.534;2023-08-08T08:38:02;1.48;;;0.50;;
48987;SDS011;34799;51.440;-2.534;2023-08-08T08:40:29;0.93;;;0.45;;
48987;SDS011;34799;51.440;-2.534;2023-08-08T08:43:02;1.52;;;0.55;;
48987;SDS011;34799;51.440;-2.534;2023-08-08T08:45:30;0.55;;;0.30;;
48987;SDS011;34799;51.440;-2.534;2023-08-08T08:47:59;0.30;;;0.20;;
48987;SDS011;34799;51.440;-2.534;2023-08-08T08:50:27;3.00;;;0.50;;
48987;SDS011;34799;51.440;-2.534;2023-08-08T08:52:58;1.40;;;0.40;;
48987;SDS011;34799;51.440;-2.534;2023-08-08T08:55:28;1.75;;;0.50;;
48987;SDS011;34799;51.440;-2.534;2023-08-08T08:57:55;3.03;;;0.30;;
48987;SDS011;34799;51.440;-2.534;2023-08-08T09:00:23;1.70;;;0.40;;
48987;SDS011;34799;51.440;-2.534;2023-08-08T09:02:52;1.70;;;0.40;;
48987;SDS011;34799;51.440;-2.534;2023-08-08T09:05:22;1.05;;;0.35;;
48987;SDS011;34799;51.440;-2.534;2023-08-08T09:07:52;0.77;;;0.40;;
48987;SDS011;34799;51.440;-2.534;2023-08-08T09:10:20;1.83;;;0.50;;
48987;SDS011;34799;51.440;-2.534;2023-08-08T09:12:49;2.20;;;0.88;;
48987;SDS011;34799;51.440;-2.534;2023-08-08T09:15:17;2.42;;;0.70;;
48987;SDS011;34799;51.440;-2.534;2023-08-08T09:17:44;2.33;;;0.57;;
48987;SDS011;34799;51.440;-2.534;2023-08-08T09:20:13;1.00;;;0.45;;
48987;SDS011;34799;51.440;-2.534;2023-08-08T09:22:41;1.52;;;0.50;;
48987;SDS011;34799;51.440;-2.534;2023-08-08T09:25:08;2.25;;;0.68;;
48987;SDS011;34799;51.440;-2.534;2023-08-08T09:27:35;2.65;;;0.73;;
48987;SDS011;34799;51.440;-2.534;2023-08-08T09:30:02;2.80;;;0.70;;
48987;SDS011;34799;51.440;-2.534;2023-08-08T09:32:30;2.45;;;0.90;;
48987;SDS011;34799;51.440;-2.534;2023-08-08T09:34:58;1.85;;;0.77;;
48987;SDS011;34799;51.440;-2.534;2023-08-08T09:37:27;3.17;;;0.80;;
48987;SDS011;34799;51.440;-2.534;2023-08-08T09:39:58;3.78;;;0.90;;
48987;SDS011;34799;51.440;-2.534;2023-08-08T09:42:27;3.63;;;1.00;;
48987;SDS011;34799;51.440;-2.534;2023-08-08T09:44:56;2.63;;;0.85;;
48987;SDS011;34799;51.440;-2.534;2023-08-08T09:47:24;3.08;;;0.82;;
48987;SDS011;34799;51.440;-2.534;2023-08-08T09:49:51;2.30;;;0.70;;
48987;SDS011;34799;51.440;-2.534;2023-08-08T09:52:19;2.67;;;0.80;;
48987;SDS011;34799;51.440;-2.534;2023-08-08T09:54:46;1.70;;;0.88;;
48987;SDS011;34799;51.440;-2.534;2023-08-08T09:57:15;4.63;;;0.63;;
48987;SDS011;34799;51.440;-2.534;2023-08-08T09:59:43;2.35;;;0.80;;
48987;SDS011;34799;51.440;-2.534;2023-08-08T10:02:14;3.38;;;0.70;;
48987;SDS011;34799;51.440;-2.534;2023-08-08T10:04:45;2.38;;;1.05;;
48987;SDS011;34799;51.440;-2.534;2023-08-08T10:07:13;3.25;;;1.13;;
48987;SDS011;34799;51.440;-2.534;2023-08-08T10:09:41;2.88;;;0.80;;
48987;SDS011;34799;51.440;-2.534;2023-08-08T10:12:09;3.17;;;1.60;;
48987;SDS011;34799;51.440;-2.534;2023-08-08T10:14:41;3.58;;;1.90;;
48987;SDS011;34799;51.440;-2.534;2023-08-08T10:17:12;3.60;;;1.40;;
48987;SDS011;34799;51.440;-2.534;2023-08-08T10:19:49;4.40;;;2.17;;
48987;SDS011;34799;51.440;-2.534;2023-08-08T10:22:24;4.60;;;1.67;;
48987;SDS011;34799;51.440;-2.534;2023-08-08T10:24:52;2.67;;;1.35;;
48987;SDS011;34799;51.440;-2.534;2023-08-08T10:27:33;4.00;;;1.08;;
48987;SDS011;34799;51.440;-2.534;2023-08-08T10:30:06;1.92;;;1.08;;
48987;SDS011;34799;51.440;-2.534;2023-08-08T10:32:44;3.03;;;0.93;;
48987;SDS011;34799;51.440;-2.534;2023-08-08T10:35:15;2.85;;;1.20;;
48987;SDS011;34799;51.440;-2.534;2023-08-08T10:37:51;3.97;;;1.55;;
48987;SDS011;34799;51.440;-2.534;2023-08-08T10:40:21;3.17;;;1.20;;
48987;SDS011;34799;51.440;-2.534;2023-08-08T10:42:48;2.22;;;0.93;;
48987;SDS011;34799;51.440;-2.534;2023-08-08T10:45:18;3.10;;;1.33;;
48987;SDS011;34799;51.440;-2.534;2023-08-08T10:47:46;2.45;;;0.85;;
48987;SDS011;34799;51.440;-2.534;2023-08-08T10:50:16;3.85;;;1.17;;
48987;SDS011;34799;51.440;-2.534;2023-08-08T10:52:50;2.40;;;0.77;;
48987;SDS011;34799;51.440;-2.534;2023-08-08T10:55:27;2.72;;;0.55;;
48987;SDS011;34799;51.440;-2.534;2023-08-08T11:00:34;0.73;;;0.30;;
48987;SDS011;34799;51.440;-2.534;2023-08-08T11:03:02;2.15;;;0.40;;
48987;SDS011;34799;51.440;-2.534;2023-08-08T11:05:35;1.38;;;0.50;;
48987;SDS011;34799;51.440;-2.534;2023-08-08T11:08:04;1.73;;;0.35;;
48987;SDS011;34799;51.440;-2.534;2023-08-08T11:10:35;0.88;;;0.30;;
48987;SDS011;34799;51.440;-2.534;2023-08-08T11:13:05;0.95;;;0.50;;
48987;SDS011;34799;51.440;-2.534;2023-08-08T11:15:34;0.77;;;0.32;;
48987;SDS011;34799;51.440;-2.534;2023-08-08T11:18:03;1.55;;;0.30;;
48987;SDS011;34799;51.440;-2.534;2023-08-08T11:20:33;0.80;;;0.35;;
48987;SDS011;34799;51.440;-2.534;2023-08-08T11:23:03;1.02;;;0.50;;
48987;SDS011;34799;51.440;-2.534;2023-08-08T11:25:32;1.80;;;0.40;;
48987;SDS011;34799;51.440;-2.534;2023-08-08T11:27:59;1.10;;;0.40;;
48987;SDS011;34799;51.440;-2.534;2023-08-08T11:30:32;2.10;;;0.60;;
48987;SDS011;34799;51.440;-2.534;2023-08-08T11:33:03;1.58;;;0.47;;
48987;SDS011;34799;51.440;-2.534;2023-08-08T11:35:34;1.38;;;0.30;;
48987;SDS011;34799;51.440;-2.534;2023-08-08T11:38:01;1.88;;;0.43;;
48987;SDS011;34799;51.440;-2.534;2023-08-08T11:40:31;1.85;;;0.45;;
48987;SDS011;34799;51.440;-2.534;2023-08-08T11:43:01;4.32;;;0.50;;
48987;SDS011;34799;51.440;-2.534;2023-08-08T11:45:29;1.17;;;0.40;;
48987;SDS011;34799;51.440;-2.534;2023-08-08T11:47:57;2.45;;;0.63;;
48987;SDS011;34799;51.440;-2.534;2023-08-08T11:50:25;3.28;;;0.40;;
48987;SDS011;34799;51.440;-2.534;2023-08-08T11:52:54;3.17;;;0.57;;
48987;SDS011;34799;51.440;-2.534;2023-08-08T11:55:28;0.95;;;0.38;;
48987;SDS011;34799;51.440;-2.534;2023-08-08T11:57:55;1.65;;;0.40;;
48987;SDS011;34799;51.440;-2.534;2023-08-08T12:00:26;1.38;;;0.40;;
48987;SDS011;34799;51.440;-2.534;2023-08-08T12:02:58;0.75;;;0.20;;
48987;SDS011;34799;51.440;-2.534;2023-08-08T12:05:27;0.50;;;0.20;;
48987;SDS011;34799;51.440;-2.534;2023-08-08T12:07:54;2.05;;;0.20;;
48987;SDS011;34799;51.440;-2.534;2023-08-08T12:10:22;0.75;;;0.20;;
48987;SDS011;34799;51.440;-2.534;2023-08-08T12:12:53;0.70;;;0.20;;
48987;SDS011;34799;51.440;-2.534;2023-08-08T12:15:27;0.80;;;0.20;;
48987;SDS011;34799;51.440;-2.534;2023-08-08T12:17:57;1.30;;;0.10;;
48987;SDS011;34799;51.440;-2.534;2023-08-08T12:20:26;0.65;;;0.10;;
48987;SDS011;34799;51.440;-2.534;2023-08-08T12:22:59;0.38;;;0.10;;
48987;SDS011;34799;51.440;-2.534;2023-08-08T12:25:27;0.30;;;0.10;;
48987;SDS011;34799;51.440;-2.534;2023-08-08T12:27:54;0.10;;;0.05;;
48987;SDS011;34799;51.440;-2.534;2023-08-08T12:30:22;1.10;;;0.10;;
48987;SDS011;34799;51.440;-2.534;2023-08-08T12:32:49;0.20;;;0.10;;
48987;SDS011;34799;51.440;-2.534;2023-08-08T12:35:16;0.20;;;0.00;;
48987;SDS011;34799;51.440;-2.534;2023-08-08T12:37:43;0.40;;;0.10;;
48987;SDS011;34799;51.440;-2.534;2023-08-08T12:40:10;0.40;;;0.10;;
48987;SDS011;34799;51.440;-2.534;2023-08-08T12:42:38;0.73;;;0.30;;
48987;SDS011;34799;51.440;-2.534;2023-08-08T12:45:06;1.17;;;0.20;;
48987;SDS011;34799;51.440;-2.534;2023-08-08T12:47:34;2.15;;;0.73;;
48987;SDS011;34799;51.440;-2.534;2023-08-08T12:50:04;0.10;;;0.00;;
48987;SDS011;34799;51.440;-2.534;2023-08-08T12:52:31;0.05;;;0.00;;
48987;SDS011;34799;51.440;-2.534;2023-08-08T12:54:58;1.33;;;0.10;;
48987;SDS011;34799;51.440;-2.534;2023-08-08T12:57:26;1.25;;;0.20;;
48987;SDS011;34799;51.440;-2.534;2023-08-08T12:59:53;0.30;;;0.10;;
48987;SDS011;34799;51.440;-2.534;2023-08-08T13:02:20;0.45;;;0.10;;
48987;SDS011;34799;51.440;-2.534;2023-08-08T13:04:47;0.40;;;0.10;;
48987;SDS011;34799;51.440;-2.534;2023-08-08T13:07:14;1.33;;;0.20;;
48987;SDS011;34799;51.440;-2.534;2023-08-08T13:09:41;0.40;;;0.15;;
48987;SDS011;34799;51.440;-2.534;2023-08-08T13:12:09;0.50;;;0.10;;
48987;SDS011;34799;51.440;-2.534;2023-08-08T13:14:36;3.00;;;0.43;;
48987;SDS011;34799;51.440;-2.534;2023-08-08T13:17:03;0.52;;;0.10;;
48987;SDS011;34799;51.440;-2.534;2023-08-08T13:19:30;3.47;;;0.10;;
48987;SDS011;34799;51.440;-2.534;2023-08-08T13:21:57;8.23;;;0.50;;
48987;SDS011;34799;51.440;-2.534;2023-08-08T13:24:25;2.15;;;0.10;;
48987;SDS011;34799;51.440;-2.534;2023-08-08T13:26:52;0.10;;;0.10;;
48987;SDS011;34799;51.440;-2.534;2023-08-08T13:29:20;1.10;;;0.10;;
48987;SDS011;34799;51.440;-2.534;2023-08-08T13:31:47;1.10;;;0.10;;
48987;SDS011;34799;51.440;-2.534;2023-08-08T13:34:14;0.25;;;0.10;;
48987;SDS011;34799;51.440;-2.534;2023-08-08T13:36:41;0.13;;;0.10;;
48987;SDS011;34799;51.440;-2.534;2023-08-08T13:39:09;2.97;;;0.10;;
48987;SDS011;34799;51.440;-2.534;2023-08-08T13:41:36;0.90;;;0.10;;
48987;SDS011;34799;51.440;-2.534;2023-08-08T13:44:04;0.25;;;0.00;;
48987;SDS011;34799;51.440;-2.534;2023-08-08T13:46:32;1.85;;;0.10;;
48987;SDS011;34799;51.440;-2.534;2023-08-08T13:48:59;0.88;;;0.00;;
48987;SDS011;34799;51.440;-2.534;2023-08-08T13:51:27;1.65;;;0.10;;
48987;SDS011;34799;51.440;-2.534;2023-08-08T13:53:54;1.13;;;0.10;;
48987;SDS011;34799;51.440;-2.534;2023-08-08T13:56:22;0.30;;;0.10;;
48987;SDS011;34799;51.440;-2.534;2023-08-08T13:58:49;0.25;;;0.10;;
48987;SDS011;34799;51.440;-2.534;2023-08-08T14:01:16;1.02;;;0.10;;
48987;SDS011;34799;51.440;-2.534;2023-08-08T14:03:43;2.58;;;0.80;;
48987;SDS011;34799;51.440;-2.534;2023-08-08T14:06:11;2.25;;;0.17;;
48987;SDS011;34799;51.440;-2.534;2023-08-08T14:08:38;1.23;;;0.60;;
48987;SDS011;34799;51.440;-2.534;2023-08-08T14:11:06;1.15;;;0.40;;
48987;SDS011;34799;51.440;-2.534;2023-08-08T14:13:33;2.22;;;0.30;;
48987;SDS011;34799;51.440;-2.534;2023-08-08T14:16:01;3.58;;;0.20;;
48987;SDS011;34799;51.440;-2.534;2023-08-08T14:18:29;2.42;;;0.30;;
48987;SDS011;34799;51.440;-2.534;2023-08-08T14:20:56;2.10;;;0.30;;
48987;SDS011;34799;51.440;-2.534;2023-08-08T14:23:23;1.42;;;0.40;;
48987;SDS011;34799;51.440;-2.534;2023-08-08T14:25:51;2.70;;;0.63;;
48987;SDS011;34799;51.440;-2.534;2023-08-08T14:28:18;2.63;;;0.65;;
48987;SDS011;34799;51.440;-2.534;2023-08-08T14:30:46;2.80;;;0.43;;
48987;SDS011;34799;51.440;-2.534;2023-08-08T14:33:14;1.77;;;0.40;;
48987;SDS011;34799;51.440;-2.534;2023-08-08T14:35:42;0.77;;;0.47;;
48987;SDS011;34799;51.440;-2.534;2023-08-08T14:38:09;2.08;;;0.40;;
48987;SDS011;34799;51.440;-2.534;2023-08-08T14:40:36;1.63;;;0.65;;
48987;SDS011;34799;51.440;-2.534;2023-08-08T14:43:03;1.23;;;0.40;;